TimePST,TemperatureF,Dew PointF,Humidity,Sea Level PressureIn,VisibilityMPH,Wind Direction,Wind SpeedMPH,Gust SpeedMPH,PrecipitationIn,Events,Conditions,WindDirDegrees,DateUTC
12:05 AM,42.8,39.2,87,30.23,5.0,Calm,Calm,-,N/A,,Mostly Cloudy,0,2013-11-11 08:05:00
12:26 AM,42.8,39.2,87,30.23,5.0,South,4.6,-,N/A,,Overcast,180,2013-11-11 08:26:00
12:53 AM,42.1,39.9,92,30.25,4.0,South,4.6,-,N/A,,Mostly Cloudy,170,2013-11-11 08:53:00
1:05 AM,42.8,39.2,87,30.24,4.0,South,4.6,-,N/A,,Mostly Cloudy,170,2013-11-11 09:05:00
1:14 AM,42.8,39.2,87,30.24,4.0,South,4.6,-,N/A,,Mostly Cloudy,170,2013-11-11 09:14:00
1:53 AM,42.1,39.9,92,30.26,4.0,South,5.8,-,N/A,,Overcast,170,2013-11-11 09:53:00
2:53 AM,42.1,41.0,96,30.26,4.0,South,4.6,-,N/A,,Overcast,190,2013-11-11 10:53:00
3:43 AM,42.8,39.2,87,30.26,5.0,SSW,6.9,-,N/A,,Overcast,200,2013-11-11 11:43:00
3:53 AM,42.1,39.9,92,30.29,5.0,SSW,5.8,-,N/A,,Overcast,200,2013-11-11 11:53:00
4:00 AM,42.8,39.2,87,30.27,5.0,SSW,6.9,-,N/A,,Overcast,200,2013-11-11 12:00:00
4:53 AM,41.0,39.9,96,30.30,4.0,SSW,8.1,-,N/A,,Overcast,200,2013-11-11 12:53:00
5:53 AM,41.0,39.0,93,30.32,5.0,SSW,3.5,-,N/A,,Overcast,210,2013-11-11 13:53:00
6:23 AM,41.0,39.2,93,30.30,5.0,Calm,Calm,-,N/A,,Overcast,0,2013-11-11 14:23:00
6:53 AM,41.0,39.0,93,30.32,6.0,Calm,Calm,-,N/A,,Overcast,0,2013-11-11 14:53:00
7:00 AM,41.0,39.2,93,30.30,5.0,Calm,Calm,-,N/A,,Overcast,0,2013-11-11 15:00:00
7:13 AM,41.0,39.2,93,30.31,4.0,Calm,Calm,-,N/A,,Overcast,0,2013-11-11 15:13:00
7:53 AM,42.1,39.9,92,30.36,4.0,SSW,4.6,-,N/A,,Overcast,210,2013-11-11 15:53:00
8:22 AM,41.0,39.2,93,30.33,2.0,South,3.5,-,N/A,,Overcast,180,2013-11-11 16:22:00
8:32 AM,41.0,39.2,93,30.33,1.5,South,4.6,-,N/A,,Overcast,190,2013-11-11 16:32:00
8:48 AM,42.8,39.2,87,30.33,1.8,Calm,Calm,-,N/A,,Overcast,0,2013-11-11 16:48:00
8:53 AM,42.1,39.9,92,30.35,2.0,Calm,Calm,-,N/A,,Overcast,0,2013-11-11 16:53:00
9:50 AM,42.8,41.0,93,30.33,3.0,NNW,3.5,-,N/A,,Overcast,340,2013-11-11 17:50:00
9:53 AM,43.0,41.0,93,30.35,3.0,NNW,3.5,-,N/A,,Overcast,330,2013-11-11 17:53:00
10:53 AM,42.1,39.9,92,30.37,4.0,Calm,Calm,-,N/A,,Overcast,0,2013-11-11 18:53:00
11:14 AM,42.8,39.2,87,30.34,4.0,Calm,Calm,-,N/A,,Overcast,0,2013-11-11 19:14:00
11:50 AM,44.6,41.0,87,30.32,5.0,South,3.5,-,N/A,,Overcast,190,2013-11-11 19:50:00
11:53 AM,44.1,41.0,89,30.34,5.0,SSW,3.5,-,N/A,,Overcast,200,2013-11-11 19:53:00
12:39 PM,44.6,39.2,81,30.33,7.0,SW,4.6,-,N/A,,Overcast,230,2013-11-11 20:39:00
12:53 PM,44.1,39.9,85,30.35,7.0,SW,3.5,-,N/A,,Overcast,220,2013-11-11 20:53:00
1:53 PM,46.0,41.0,83,30.32,7.0,Calm,Calm,-,N/A,,Overcast,0,2013-11-11 21:53:00
2:53 PM,46.0,39.9,79,30.31,7.0,Calm,Calm,-,N/A,,Overcast,0,2013-11-11 22:53:00
3:53 PM,46.0,39.9,79,30.29,7.0,Calm,Calm,-,N/A,,Overcast,0,2013-11-11 23:53:00
4:53 PM,45.0,39.9,82,30.28,8.0,SE,3.5,-,N/A,,Overcast,140,2013-11-12 00:53:00
5:53 PM,45.0,39.9,82,30.29,8.0,Calm,Calm,-,N/A,,Overcast,0,2013-11-12 01:53:00
6:53 PM,45.0,39.9,82,30.27,7.0,Calm,Calm,-,N/A,,Overcast,0,2013-11-12 02:53:00
7:53 PM,45.0,39.9,82,30.28,7.0,SSW,3.5,-,N/A,,Overcast,210,2013-11-12 03:53:00
8:53 PM,45.0,39.9,82,30.29,6.0,SSE,3.5,-,N/A,,Haze,160,2013-11-12 04:53:00
9:53 PM,45.0,41.0,86,30.27,7.0,SE,3.5,-,N/A,,Overcast,140,2013-11-12 05:53:00
10:53 PM,45.0,39.9,82,30.26,7.0,SE,5.8,-,N/A,,Overcast,130,2013-11-12 06:53:00
11:53 PM,45.0,39.9,82,30.24,7.0,ESE,3.5,-,N/A,,Overcast,120,2013-11-12 07:53:00